Time;durP1;ratioP1;P1;durP2;ratioP2;P2;SDS_P1;SDS_P2;PMS_P1;PMS_P2;Temp;Humidity;BMP_temperature;BMP_pressure;BME280_temperature;BME280_humidity;BME280_pressure;Samples;Min_cycle;Max_cycle;Signal;HPM_P1;HPM_P2
2022/03/10 00:01:54;;;;;;;;;34.50;33.00;;;;;13.30;45.85;101588.16;5040633;28;45306;-74
2022/03/10 00:04:19;;;;;;;;;37.25;32.25;;;;;13.31;45.97;101597.06;5041503;28;45371;-74
2022/03/10 00:06:45;;;;;;;;;39.25;33.75;;;;;13.23;46.00;101580.34;5038939;28;45445;-74
2022/03/10 00:09:10;;;;;;;;;38.00;34.00;;;;;13.20;46.00;101580.44;5036364;28;47278;-74
2022/03/10 00:11:36;;;;;;;;;43.25;34.75;;;;;13.25;46.07;101595.47;5030876;28;45341;-74
2022/03/10 00:14:01;;;;;;;;;35.25;32.50;;;;;13.23;46.26;101593.75;5038149;28;45260;-74
2022/03/10 00:16:26;;;;;;;;;36.00;32.00;;;;;13.13;46.33;101579.72;5039370;28;45325;-74
2022/03/10 00:18:52;;;;;;;;;42.75;36.00;;;;;13.11;46.00;101579.81;5029262;28;46105;-74
2022/03/10 00:21:17;;;;;;;;;37.00;33.00;;;;;13.07;46.30;101571.91;5040539;28;45859;-74
2022/03/10 00:23:42;;;;;;;;;37.75;34.50;;;;;13.15;46.30;101588.63;5029757;28;45356;-74
2022/03/10 00:26:08;;;;;;;;;46.00;37.50;;;;;13.12;46.33;101589.59;5024760;28;45448;-74
2022/03/10 00:28:34;;;;;;;;;37.50;34.00;;;;;13.11;46.35;101586.94;5035647;28;46004;-74
2022/03/10 00:30:59;;;;;;;;;38.00;34.00;;;;;13.06;46.45;101581.72;5040244;28;45551;-74
2022/03/10 00:33:25;;;;;;;;;42.25;35.75;;;;;13.07;46.46;101593.34;5037559;28;45300;-74
2022/03/10 00:35:53;;;;;;;;;38.25;33.25;;;;;13.00;46.28;101592.63;5029497;28;45442;-74
2022/03/10 00:38:18;;;;;;;;;43.25;34.75;;;;;12.97;46.63;101592.72;5036631;28;46084;-74
2022/03/10 00:40:45;;;;;;;;;37.50;32.50;;;;;13.00;46.34;101598.00;5040279;28;45391;-74
2022/03/10 00:43:13;;;;;;;;;36.00;32.75;;;;;12.98;46.28;101598.03;5040154;28;45403;-74
2022/03/10 00:45:39;;;;;;;;;41.25;34.25;;;;;12.93;46.51;101597.28;5040034;28;45475;-74
2022/03/10 00:48:05;;;;;;;;;41.50;34.00;;;;;12.97;46.65;101603.44;5026228;28;46919;-74
2022/03/10 00:50:30;;;;;;;;;34.50;32.00;;;;;12.87;46.52;101592.09;5039647;28;45351;-74
2022/03/10 00:52:56;;;;;;;;;41.25;35.25;;;;;12.87;46.55;101600.13;5039977;28;45218;-74
2022/03/10 00:55:22;;;;;;;;;39.00;34.25;;;;;12.78;46.36;101595.94;5029221;28;45572;-74
2022/03/10 00:57:49;;;;;;;;;36.00;32.00;;;;;12.85;46.37;101615.38;5026559;28;46158;-74
2022/03/10 01:00:15;;;;;;;;;43.00;34.75;;;;;12.84;46.32;101615.44;5039753;28;45315;-74
2022/03/10 01:02:41;;;;;;;;;37.00;32.25;;;;;12.81;46.24;101608.34;5038718;28;45616;-74
2022/03/10 01:05:09;;;;;;;;;41.00;36.75;;;;;12.77;46.28;101595.97;5039909;28;45378;-74
2022/03/10 01:07:35;;;;;;;;;38.25;34.75;;;;;12.81;46.04;101604.78;5040753;28;45478;-74
2022/03/10 01:10:02;;;;;;;;;35.75;33.25;;;;;12.82;45.99;101603.88;5039048;28;45258;-74
2022/03/10 01:12:27;;;;;;;;;39.00;34.50;;;;;12.78;46.07;101603.09;5029377;28;45287;-74
2022/03/10 01:14:53;;;;;;;;;40.50;35.25;;;;;12.80;45.83;101603.91;5039711;28;45387;-74
2022/03/10 01:17:19;;;;;;;;;41.00;35.25;;;;;12.79;46.03;101611.06;5038992;28;46247;-74
2022/03/10 01:19:44;;;;;;;;;40.50;34.75;;;;;12.80;45.84;101611.97;5039178;28;45371;-74
2022/03/10 01:22:09;;;;;;;;;41.25;34.25;;;;;12.79;46.03;101603.03;5038601;28;45532;-74
2022/03/10 01:24:35;;;;;;;;;27.00;23.00;;;;;12.78;45.85;101597.72;5032961;28;45366;-74
2022/03/10 01:27:01;;;;;;;;;39.00;33.50;;;;;12.78;45.57;101605.78;5024834;28;47161;-74
2022/03/10 01:29:26;;;;;;;;;33.00;28.25;;;;;12.73;45.64;101603.22;5039249;28;45391;-74
2022/03/10 01:31:51;;;;;;;;;36.25;31.00;;;;;12.69;45.63;101598.84;5038390;28;45386;-74
2022/03/10 01:34:17;;;;;;;;;33.25;30.50;;;;;12.58;45.73;101584.91;5036239;28;45334;-74
2022/03/10 01:36:42;;;;;;;;;34.50;32.50;;;;;12.65;45.33;101599.00;5039052;28;45309;-74
2022/03/10 01:39:08;;;;;;;;;35.00;30.00;;;;;12.67;45.82;101605.19;5037015;28;45434;-74
2022/03/10 01:41:34;;;;;;;;;31.00;27.75;;;;;12.62;45.46;101594.59;5038478;28;45450;-74
2022/03/10 01:44:02;;;;;;;;;33.00;29.50;;;;;12.66;45.43;101606.97;5039487;28;45188;-74
2022/03/10 01:46:28;;;;;;;;;36.50;32.75;;;;;12.63;45.63;101598.13;5026555;28;47331;-74
2022/03/10 01:48:55;;;;;;;;;30.75;29.00;;;;;12.40;45.46;101560.34;5030818;28;45703;-74
2022/03/10 01:51:22;;;;;;;;;31.75;29.75;;;;;12.66;45.32;101606.09;5039076;28;45343;-74
2022/03/10 01:53:50;;;;;;;;;40.00;33.75;;;;;12.63;45.49;101595.47;5038981;28;45474;-74
2022/03/10 01:56:17;;;;;;;;;29.50;27.50;;;;;12.64;45.14;101602.59;5036522;28;46459;-74
2022/03/10 01:58:43;;;;;;;;;37.25;32.00;;;;;12.63;45.38;101596.34;5029339;28;45670;-74
2022/03/10 02:01:10;;;;;;;;;34.25;31.25;;;;;12.53;45.38;101584.09;5037047;28;45588;-74
2022/03/10 02:03:36;;;;;;;;;32.75;32.00;;;;;12.56;45.34;101576.91;5038991;28;45327;-74
2022/03/10 02:06:02;;;;;;;;;32.25;30.50;;;;;12.55;45.09;101593.00;5038672;28;45465;-74
2022/03/10 02:11:12;;;;;;;;;36.00;31.00;;;;;12.52;45.22;101588.59;5039140;28;45429;-74
2022/03/10 02:13:37;;;;;;;;;33.00;31.00;;;;;12.50;45.07;101590.44;5038802;28;45466;-74
2022/03/10 02:18:46;;;;;;;;;33.00;31.50;;;;;12.46;45.21;101591.44;5032010;28;45364;-74
2022/03/10 02:21:12;;;;;;;;;35.75;32.25;;;;;12.37;45.35;101583.66;5047148;28;45544;-74
2022/03/10 02:23:37;;;;;;;;;37.25;34.00;;;;;12.44;45.34;101593.28;5030762;28;45425;-74
2022/03/10 02:26:04;;;;;;;;;41.50;33.75;;;;;12.42;45.37;101587.97;5026244;28;45396;-74
2022/03/10 02:28:31;;;;;;;;;32.75;31.25;;;;;12.42;45.53;101589.78;5036651;28;45657;-74
2022/03/10 02:30:57;;;;;;;;;33.75;31.25;;;;;12.39;45.20;101585.34;5034223;28;45311;-74
2022/03/10 02:33:22;;;;;;;;;40.50;33.25;;;;;12.35;45.44;101589.06;5035764;28;45228;-74
2022/03/10 02:35:47;;;;;;;;;36.50;33.50;;;;;12.33;45.39;101585.53;5031344;28;45586;-74
2022/03/10 02:38:18;;;;;;;;;36.75;32.50;;;;;12.33;45.87;101593.56;5035335;28;45280;-74
2022/03/10 02:40:44;;;;;;;;;42.75;35.25;;;;;12.24;45.48;101572.38;5031061;28;45345;-74
2022/03/10 02:43:10;;;;;;;;;42.75;36.50;;;;;12.23;45.86;101576.88;5038522;28;45312;-74
2022/03/10 02:45:35;;;;;;;;;37.00;34.00;;;;;12.20;45.82;101582.28;5049031;28;45196;-74
2022/03/10 02:48:00;;;;;;;;;39.00;32.75;;;;;12.25;45.99;101592.03;5028008;28;45209;-74
2022/03/10 02:50:26;;;;;;;;;44.75;36.00;;;;;12.29;45.90;101599.03;5032060;28;45551;-74
2022/03/10 02:52:51;;;;;;;;;35.00;31.75;;;;;12.13;45.71;101579.81;5036202;28;45437;-74
2022/03/10 02:55:17;;;;;;;;;33.75;30.00;;;;;12.18;45.70;101591.31;5041734;28;46308;-74
2022/03/10 02:57:42;;;;;;;;;37.50;33.00;;;;;12.15;45.81;101594.06;5039061;28;45181;-74
2022/03/10 03:00:08;;;;;;;;;32.75;29.00;;;;;12.17;45.46;101597.56;5034453;28;45451;-74
2022/03/10 03:02:34;;;;;;;;;35.25;32.25;;;;;12.16;45.62;101598.47;5021821;28;45577;-74
2022/03/10 03:04:59;;;;;;;;;30.75;28.75;;;;;12.18;45.50;101591.31;5021632;28;45311;-74
2022/03/10 03:07:25;;;;;;;;;35.50;31.25;;;;;12.20;45.62;101598.34;5021682;28;45401;-74
2022/03/10 03:09:50;;;;;;;;;40.25;33.50;;;;;12.18;45.24;101594.84;5029128;28;45587;-74
2022/03/10 03:12:16;;;;;;;;;34.50;30.50;;;;;12.12;45.38;101591.44;5027379;28;45398;-74
2022/03/10 03:14:42;;;;;;;;;35.75;32.25;;;;;12.13;45.32;101603.88;5021596;28;45957;-74
2022/03/10 03:17:07;;;;;;;;;37.00;32.00;;;;;12.02;45.65;101588.13;5021555;28;45413;-74
2022/03/10 03:19:33;;;;;;;;;35.25;30.00;;;;;12.09;45.40;101602.22;5025986;28;45884;-74
2022/03/10 03:21:58;;;;;;;;;32.25;30.00;;;;;12.09;45.43;101607.56;5034061;28;45952;-74
2022/03/10 03:24:24;;;;;;;;;26.25;25.25;;;;;12.04;45.37;101605.91;5021622;28;46673;-74
2022/03/10 03:26:49;;;;;;;;;29.75;27.00;;;;;11.99;45.48;101605.09;5021161;28;45401;-74
2022/03/10 03:29:16;;;;;;;;;28.00;27.50;;;;;12.01;45.48;101605.06;5033889;28;46871;-74
2022/03/10 03:31:41;;;;;;;;;35.75;33.00;;;;;12.01;45.74;101611.31;5021674;28;45244;-74
2022/03/10 03:34:10;;;;;;;;;31.50;30.50;;;;;11.95;45.54;101610.59;5025562;28;46044;-74
2022/03/10 03:36:45;;;;;;;;;28.25;28.00;;;;;11.99;45.65;101622.97;5041329;28;45480;-74
2022/03/10 03:39:12;;;;;;;;;33.25;32.25;;;;;11.90;45.45;101608.00;5028573;28;45439;-74
2022/03/10 03:41:37;;;;;;;;;34.75;31.50;;;;;11.87;45.58;101608.94;5055361;28;45456;-74
2022/03/10 03:44:03;;;;;;;;;31.50;30.25;;;;;11.90;45.42;101617.81;5053899;28;46059;-74
2022/03/10 03:46:29;;;;;;;;;31.25;30.00;;;;;11.83;45.57;101609.06;5039353;28;45248;-74
2022/03/10 03:48:55;;;;;;;;;25.00;25.00;;;;;11.84;45.82;101618.84;5026510;28;45477;-74
2022/03/10 03:51:21;;;;;;;;;27.00;26.50;;;;;11.84;45.50;101618.84;5020838;28;45402;-74
2022/03/10 03:53:48;;;;;;;;;38.50;32.00;;;;;11.74;45.59;101610.13;5036947;28;45391;-74
2022/03/10 03:56:13;;;;;;;;;34.00;32.50;;;;;11.76;45.53;101612.78;5027778;28;45227;-74
2022/03/10 03:58:38;;;;;;;;;28.75;24.50;;;;;11.71;45.56;101617.34;5033039;28;45458;-74
2022/03/10 04:01:04;;;;;;;;;33.25;30.75;;;;;11.66;45.56;101622.81;5020891;28;45484;-74
2022/03/10 04:03:29;;;;;;;;;34.50;31.50;;;;;11.62;45.51;101619.31;5036849;28;45984;-74
2022/03/10 04:05:55;;;;;;;;;38.00;32.00;;;;;11.56;45.97;101619.47;5044617;28;45301;-74
2022/03/10 04:08:23;;;;;;;;;25.75;24.00;;;;;11.57;46.09;101629.25;5028798;28;45436;-74
2022/03/10 04:10:48;;;;;;;;;36.75;33.25;;;;;11.49;45.98;101613.41;5025707;28;45312;-74
2022/03/10 04:13:14;;;;;;;;;33.50;29.75;;;;;11.47;45.75;101619.69;5020882;28;46033;-74
2022/03/10 04:15:39;;;;;;;;;33.25;32.75;;;;;11.45;46.13;101619.72;5020506;28;45347;-74
2022/03/10 04:18:05;;;;;;;;;33.25;31.75;;;;;11.42;46.03;101619.78;5029107;28;45598;-74
2022/03/10 04:20:30;;;;;;;;;32.50;29.00;;;;;11.45;45.78;101635.75;5025378;28;45197;-74
2022/03/10 04:22:57;;;;;;;;;32.00;28.00;;;;;11.43;46.14;101632.22;5031673;28;45958;-74
2022/03/10 04:25:22;;;;;;;;;30.75;30.25;;;;;11.34;46.01;101627.06;5049751;28;45149;-74
2022/03/10 04:27:49;;;;;;;;;33.75;30.75;;;;;11.38;46.04;101639.47;5028783;28;45157;-74
2022/03/10 04:30:14;;;;;;;;;37.75;33.00;;;;;11.28;46.51;101629.91;5020100;28;45405;-74
2022/03/10 04:32:42;;;;;;;;;32.00;30.75;;;;;11.31;46.29;101640.53;5034549;28;45474;-74
2022/03/10 04:35:09;;;;;;;;;27.50;24.75;;;;;11.29;46.24;101628.97;5045515;28;45295;-74
2022/03/10 04:37:34;;;;;;;;;34.50;32.25;;;;;11.21;46.57;101625.56;5031941;28;45407;-74
2022/03/10 04:40:00;;;;;;;;;31.25;26.75;;;;;11.20;46.42;101634.53;5019858;28;45316;-74
2022/03/10 04:42:25;;;;;;;;;32.00;28.25;;;;;11.26;46.35;101640.63;5020553;28;46215;-74
2022/03/10 04:44:50;;;;;;;;;36.25;32.75;;;;;11.25;46.48;101646.88;5030791;28;45331;-74
2022/03/10 04:47:16;;;;;;;;;31.00;29.75;;;;;11.28;46.64;101640.59;5038501;28;45284;-74
2022/03/10 04:49:41;;;;;;;;;30.25;28.25;;;;;11.26;46.53;101645.97;5024788;28;45542;-74
2022/03/10 04:52:07;;;;;;;;;31.00;27.00;;;;;11.25;46.53;101635.31;5023516;28;45275;-74
2022/03/10 04:54:32;;;;;;;;;31.75;27.25;;;;;11.11;46.55;101623.09;5038894;28;45316;-74
2022/03/10 04:56:57;;;;;;;;;32.75;30.25;;;;;11.19;46.37;101635.41;5020419;28;45407;-74
2022/03/10 04:59:25;;;;;;;;;31.25;26.50;;;;;11.05;46.27;101625.91;5033261;28;45399;-74
2022/03/10 05:01:50;;;;;;;;;36.00;32.25;;;;;11.07;46.34;101637.44;5020077;28;46114;-74
2022/03/10 05:04:15;;;;;;;;;26.50;24.75;;;;;11.14;46.78;101648.88;5019689;28;45343;-74
2022/03/10 05:06:41;;;;;;;;;29.75;27.50;;;;;11.11;46.77;101639.13;5020336;28;45387;-74
2022/03/10 05:09:06;;;;;;;;;31.50;29.75;;;;;11.02;46.66;101638.44;5033068;28;45295;-74
2022/03/10 05:11:31;;;;;;;;;31.75;30.50;;;;;11.11;47.06;101636.47;5019872;28;46236;-74
2022/03/10 05:13:57;;;;;;;;;33.00;28.75;;;;;11.06;47.12;101625.00;5019839;28;45245;-74
2022/03/10 05:16:22;;;;;;;;;29.25;28.50;;;;;11.10;46.86;101637.38;5020046;28;45230;-73
2022/03/10 05:18:47;;;;;;;;;31.25;29.25;;;;;11.13;47.10;101631.97;5033337;28;45356;-74
2022/03/10 05:21:12;;;;;;;;;28.50;26.25;;;;;11.13;47.06;101628.41;5019857;28;46082;-73
2022/03/10 05:23:38;;;;;;;;;26.00;24.25;;;;;11.08;46.72;101619.63;5021925;28;45299;-74
2022/03/10 05:26:04;;;;;;;;;37.50;28.25;;;;;11.12;47.12;101632.00;5042396;28;45355;-74
2022/03/10 05:28:29;;;;;;;;;33.00;30.00;;;;;11.06;46.65;101621.41;5025335;28;45403;-73
2022/03/10 05:30:54;;;;;;;;;26.75;25.75;;;;;11.04;46.93;101620.59;5019609;28;46277;-74
2022/03/10 05:33:20;;;;;;;;;35.75;31.50;;;;;10.99;47.02;101609.97;5019726;28;45192;-74
2022/03/10 05:35:45;;;;;;;;;31.50;27.25;;;;;11.09;46.92;101630.28;5038097;28;45161;-74
2022/03/10 05:38:11;;;;;;;;;30.00;27.50;;;;;11.09;46.96;101638.31;5032342;28;45453;-73
2022/03/10 05:40:36;;;;;;;;;29.75;27.25;;;;;11.07;46.83;101629.41;5026035;28;46080;-74
2022/03/10 05:43:01;;;;;;;;;34.00;28.00;;;;;11.03;47.17;101625.06;5026443;28;45252;-74
2022/03/10 05:45:27;;;;;;;;;30.25;27.00;;;;;11.10;47.14;101631.16;5036252;28;45355;-74
2022/03/10 05:47:55;;;;;;;;;32.00;29.75;;;;;11.08;47.12;101631.19;5031818;28;45607;-74
2022/03/10 05:50:22;;;;;;;;;36.50;31.75;;;;;11.07;47.25;101637.44;5019081;28;45998;-74
2022/03/10 05:52:47;;;;;;;;;30.00;27.50;;;;;11.07;47.17;101633.88;5021209;28;45512;-73
2022/03/10 05:55:14;;;;;;;;;38.00;31.50;;;;;11.00;47.38;101629.59;5052666;28;45417;-74
2022/03/10 05:57:39;;;;;;;;;35.25;32.50;;;;;11.09;47.00;101637.41;5028885;28;45431;-73
2022/03/10 06:00:06;;;;;;;;;35.25;33.25;;;;;11.03;47.53;101637.53;5033664;28;46677;-73
2022/03/10 06:02:31;;;;;;;;;32.50;29.75;;;;;11.00;47.41;101625.09;5021366;28;45312;-73
2022/03/10 06:05:00;;;;;;;;;29.75;29.50;;;;;11.06;47.41;101629.44;5020764;28;45378;-73
2022/03/10 06:07:26;;;;;;;;;31.75;29.50;;;;;11.09;47.60;101648.09;5026325;28;45589;-73
2022/03/10 06:09:51;;;;;;;;;27.75;24.00;;;;;11.09;47.64;101645.41;5029392;28;45500;-79
2022/03/10 06:12:21;;;;;;;;;32.50;31.50;;;;;11.06;47.44;101638.34;5020875;28;45442;-81
2022/03/10 06:14:46;;;;;;;;;26.25;22.00;;;;;11.01;47.60;101632.22;5021208;28;45296;-83
2022/03/10 06:17:12;;;;;;;;;35.25;32.75;;;;;11.02;47.58;101633.09;5021767;28;45712;-83
2022/03/10 06:19:37;;;;;;;;;35.75;32.50;;;;;10.99;47.01;101628.69;5038686;28;46262;-83
2022/03/10 06:22:03;;;;;;;;;29.00;26.50;;;;;11.03;47.53;101643.75;5021633;28;45429;-75
2022/03/10 06:24:28;;;;;;;;;38.00;34.00;;;;;11.02;47.64;101649.13;5036859;28;45980;-74
2022/03/10 06:26:53;;;;;;;;;36.50;33.75;;;;;11.00;47.80;101645.63;5029801;28;45688;-75
2022/03/10 06:29:19;;;;;;;;;31.50;30.00;;;;;10.98;47.77;101645.63;5034312;28;46461;-74
2022/03/10 06:31:44;;;;;;;;;31.75;29.25;;;;;10.94;47.51;101643.91;5024531;28;45462;-74
2022/03/10 06:34:09;;;;;;;;;36.25;33.00;;;;;10.93;47.74;101647.53;5034788;28;45420;-74
2022/03/10 06:36:35;;;;;;;;;41.25;33.00;;;;;10.91;47.97;101650.22;5034880;28;45521;-74
2022/03/10 06:39:00;;;;;;;;;34.75;34.00;;;;;10.90;48.04;101658.25;5025734;28;45407;-74
2022/03/10 06:41:26;;;;;;;;;34.25;31.00;;;;;10.90;47.67;101660.94;5034553;28;45228;-74
2022/03/10 06:43:52;;;;;;;;;35.00;31.00;;;;;10.83;48.05;101641.47;5025225;28;45684;-74
2022/03/10 06:46:17;;;;;;;;;37.50;34.50;;;;;10.82;47.81;101641.50;5035469;28;45421;-74
2022/03/10 06:48:42;;;;;;;;;34.00;29.25;;;;;10.81;48.21;101647.75;5027764;28;45405;-77
2022/03/10 06:51:08;;;;;;;;;37.00;33.75;;;;;10.86;47.65;101649.44;5025652;28;45629;-77
2022/03/10 06:53:33;;;;;;;;;29.75;29.25;;;;;10.86;47.75;101656.53;5020290;28;45451;-75
2022/03/10 06:55:59;;;;;;;;;34.75;30.25;;;;;10.78;48.32;101651.38;5031961;28;45777;-75
2022/03/10 06:58:24;;;;;;;;;38.00;35.50;;;;;10.80;47.86;101664.69;5034339;28;45386;-72
2022/03/10 07:00:50;;;;;;;;;46.50;36.25;;;;;10.75;48.43;101654.97;5024471;28;45399;-72
2022/03/10 07:03:15;;;;;;;;;41.00;36.25;;;;;10.70;48.50;101661.31;5027146;28;45367;-70
2022/03/10 07:05:41;;;;;;;;;34.75;34.00;;;;;10.64;48.29;101662.31;5037254;28;45621;-70
2022/03/10 07:08:07;;;;;;;;;41.50;36.75;;;;;10.60;48.38;101665.06;5021486;28;46307;-70
2022/03/10 07:10:32;;;;;;;;;34.25;32.25;;;;;10.54;48.79;101655.34;5023286;28;45859;-70
2022/03/10 07:12:58;;;;;;;;;37.75;34.00;;;;;10.57;49.01;101665.97;5032447;28;45484;-70
2022/03/10 07:15:23;;;;;;;;;36.50;29.75;;;;;10.58;48.94;101670.41;5028358;28;45360;-71
2022/03/10 07:17:49;;;;;;;;;36.25;33.50;;;;;10.57;48.93;101673.97;5039274;28;45971;-72
2022/03/10 07:20:15;;;;;;;;;40.50;35.50;;;;;10.56;48.61;101680.25;5039722;28;45410;-72
2022/03/10 07:22:41;;;;;;;;;46.00;36.25;;;;;10.55;48.86;101671.34;5039629;28;45387;-71
2022/03/10 07:25:09;;;;;;;;;37.25;33.75;;;;;10.58;48.92;101678.44;5039540;28;45410;-72
2022/03/10 07:27:34;;;;;;;;;44.50;36.25;;;;;10.50;49.26;101673.22;5021156;28;47211;-71
2022/03/10 07:30:00;;;;;;;;;30.75;30.75;;;;;10.54;49.57;101682.03;5020767;28;45454;-71
2022/03/10 07:32:26;;;;;;;;;41.25;35.00;;;;;10.55;49.07;101684.69;5025579;28;45138;-71
2022/03/10 07:34:51;;;;;;;;;37.00;32.75;;;;;10.59;49.61;101681.97;5038736;28;45691;-71
2022/03/10 07:37:17;;;;;;;;;49.50;36.75;;;;;10.60;49.45;101687.28;5040175;28;45284;-71
2022/03/10 07:39:42;;;;;;;;;31.25;29.25;;;;;10.60;49.45;101687.28;5038324;28;45364;-71
2022/03/10 07:42:08;;;;;;;;;27.75;27.75;;;;;10.59;49.19;101688.19;5040421;28;45363;-70
2022/03/10 07:44:34;;;;;;;;;37.50;34.00;;;;;10.57;48.96;101684.66;5040938;28;45450;-86
2022/03/10 07:46:59;;;;;;;;;30.50;25.75;;;;;10.57;48.98;101687.34;5032869;28;46043;-86
2022/03/10 07:49:24;;;;;;;;;46.00;37.25;;;;;10.56;49.49;101689.13;5027277;28;45394;-86
2022/03/10 07:51:50;;;;;;;;;43.75;38.00;;;;;10.52;49.61;101681.19;5029119;28;45461;-84
2022/03/10 07:54:15;;;;;;;;;38.75;32.00;;;;;10.50;49.25;101685.69;5035972;28;45486;-84
2022/03/10 07:56:41;;;;;;;;;46.00;37.75;;;;;10.53;49.45;101693.66;5024452;28;46505;-83
2022/03/10 07:59:06;;;;;;;;;37.50;34.50;;;;;10.52;49.67;101689.19;5031026;28;45699;-85
2022/03/10 08:01:32;;;;;;;;;37.25;33.75;;;;;10.51;49.83;101685.66;5024311;28;45446;-65
2022/03/10 08:03:57;;;;;;;;;40.00;35.50;;;;;10.48;49.87;101692.84;5038869;28;45455;-65
2022/03/10 08:06:24;;;;;;;;;37.75;32.50;;;;;10.50;50.10;101694.56;5033945;28;45601;-65
2022/03/10 08:08:50;;;;;;;;;45.75;37.00;;;;;10.52;50.23;101690.09;5020543;28;45217;-65
2022/03/10 08:11:15;;;;;;;;;36.50;32.25;;;;;10.49;49.62;101684.81;5021723;28;45505;-65
2022/03/10 08:13:41;;;;;;;;;33.25;33.00;;;;;10.54;49.69;101682.94;5040865;28;45224;-65
2022/03/10 08:16:06;;;;;;;;;36.25;31.75;;;;;10.50;50.20;101689.22;5040033;28;45443;-65
2022/03/10 08:18:31;;;;;;;;;35.25;32.50;;;;;10.53;49.81;101698.97;5039272;28;45216;-65
2022/03/10 08:20:58;;;;;;;;;36.00;33.00;;;;;10.50;50.39;101685.69;5026938;28;45320;-65
2022/03/10 08:23:24;;;;;;;;;29.00;26.50;;;;;10.50;50.62;101686.56;5037816;28;45621;-66
2022/03/10 08:25:49;;;;;;;;;37.00;34.00;;;;;10.53;50.59;101691.84;5028460;28;47052;-65
2022/03/10 08:28:14;;;;;;;;;32.00;27.25;;;;;10.56;50.38;101694.47;5038950;28;45615;-65
2022/03/10 08:30:40;;;;;;;;;36.50;32.75;;;;;10.59;50.60;101687.31;5040345;28;45345;-65
2022/03/10 08:33:05;;;;;;;;;33.50;26.50;;;;;10.60;50.20;101686.41;5039218;28;45378;-65
2022/03/10 08:35:32;;;;;;;;;30.75;29.50;;;;;10.61;50.15;101689.06;5038776;28;46058;-65
2022/03/10 08:37:57;;;;;;;;;36.25;32.75;;;;;10.66;50.75;101680.94;5040181;28;45254;-65
2022/03/10 08:40:23;;;;;;;;;29.25;28.75;;;;;10.67;50.66;101674.69;5035986;28;45392;-65
2022/03/10 08:42:49;;;;;;;;;34.00;30.25;;;;;10.72;50.08;101664.81;5039965;28;45472;-65
2022/03/10 08:45:15;;;;;;;;;39.25;34.00;;;;;10.70;50.35;101656.84;5037016;28;46568;-66
2022/03/10 08:47:41;;;;;;;;;38.25;33.75;;;;;10.78;50.74;101664.72;5029098;28;45311;-65
2022/03/10 08:50:07;;;;;;;;;38.00;32.75;;;;;10.80;50.43;101659.34;5039594;28;45404;-66
2022/03/10 08:52:33;;;;;;;;;34.75;29.00;;;;;10.87;50.28;101664.53;5036917;28;45258;-65
2022/03/10 08:54:59;;;;;;;;;29.25;28.50;;;;;10.91;50.60;101658.22;5035583;28;47076;-65
2022/03/10 08:57:25;;;;;;;;;32.25;27.75;;;;;11.01;50.53;101672.31;5039619;28;45834;-65
2022/03/10 08:59:51;;;;;;;;;32.25;28.75;;;;;11.01;50.23;101668.72;5023209;28;45256;-65
2022/03/10 09:02:16;;;;;;;;;29.50;23.75;;;;;11.03;50.32;101659.78;5028032;28;45726;-65
2022/03/10 09:04:42;;;;;;;;;30.50;28.50;;;;;11.06;50.01;101659.72;5019587;28;46247;-65
2022/03/10 09:07:07;;;;;;;;;33.25;27.75;;;;;11.13;50.29;101666.69;5033612;28;45422;-65
2022/03/10 09:09:33;;;;;;;;;29.75;28.00;;;;;11.11;50.28;101657.84;5039466;28;45387;-65
2022/03/10 09:11:58;;;;;;;;;32.00;28.00;;;;;11.23;50.05;101671.88;5033110;28;45511;-65
2022/03/10 09:14:23;;;;;;;;;32.25;27.75;;;;;11.24;50.31;101662.94;5017329;28;46907;-65
2022/03/10 09:16:51;;;;;;;;;37.50;32.00;;;;;11.29;50.35;101661.94;5026781;28;45140;-65
2022/03/10 09:19:17;;;;;;;;;36.25;30.75;;;;;11.32;50.74;101659.19;5028637;28;45261;-65
2022/03/10 09:21:42;;;;;;;;;27.00;23.25;;;;;11.35;50.07;101652.03;5023714;28;45177;-65
2022/03/10 09:24:08;;;;;;;;;24.50;22.25;;;;;11.38;50.22;101647.50;5029097;28;45410;-65
2022/03/10 09:26:34;;;;;;;;;29.00;29.00;;;;;11.54;50.19;101655.19;5028718;28;45270;-65
2022/03/10 09:28:59;;;;;;;;;33.00;27.50;;;;;11.57;50.49;101655.13;5030744;28;45408;-65
2022/03/10 09:31:25;;;;;;;;;31.25;28.00;;;;;11.65;50.17;101658.50;5021461;28;45506;-65
2022/03/10 09:33:51;;;;;;;;;36.75;32.25;;;;;11.62;50.19;101645.19;5021696;28;45606;-63
2022/03/10 09:36:16;;;;;;;;;32.00;29.75;;;;;11.76;49.87;101653.81;5030685;28;45433;-62
2022/03/10 09:38:42;;;;;;;;;23.75;21.75;;;;;11.73;49.75;101637.81;5033468;28;45660;-63
2022/03/10 09:41:08;;;;;;;;;31.50;30.50;;;;;11.86;50.39;101644.66;5035793;28;45966;-63
2022/03/10 09:43:35;;;;;;;;;29.25;25.50;;;;;11.85;50.50;101634.84;5037829;28;48679;-63
2022/03/10 09:46:01;;;;;;;;;34.75;32.75;;;;;11.93;50.43;101636.47;5021871;28;45330;-63
2022/03/10 09:48:27;;;;;;;;;31.50;29.25;;;;;12.05;50.37;101641.56;5029299;28;45415;-65
2022/03/10 09:50:52;;;;;;;;;28.50;26.75;;;;;12.03;50.26;101632.69;5035517;28;45273;-65
2022/03/10 09:53:19;;;;;;;;;32.00;30.25;;;;;12.17;49.71;101638.56;5020755;28;47325;-65
2022/03/10 09:55:45;;;;;;;;;30.00;27.75;;;;;12.28;49.82;101645.44;5022633;28;45440;-65
2022/03/10 09:58:10;;;;;;;;;29.75;28.00;;;;;12.37;50.07;101647.91;5033519;28;45562;-65
2022/03/10 10:00:36;;;;;;;;;34.75;30.75;;;;;12.37;49.86;101624.69;5019810;28;45353;-65
2022/03/10 10:03:01;;;;;;;;;34.25;29.00;;;;;12.51;49.94;101632.38;5021030;28;45287;-65
2022/03/10 10:05:29;;;;;;;;;31.00;28.50;;;;;12.59;49.87;101637.50;5019128;28;45354;-65
2022/03/10 10:08:17;;;;;;;;;38.25;32.25;;;;;12.66;49.73;101632.88;5017848;28;45311;-65
2022/03/10 10:10:51;;;;;;;;;28.00;25.00;;;;;12.74;49.63;101636.22;5046460;28;45474;-65
2022/03/10 10:13:25;;;;;;;;;33.00;30.50;;;;;12.79;49.60;101631.63;5029992;28;47522;-65
2022/03/10 10:16:05;;;;;;;;;38.25;32.75;;;;;12.85;49.60;101631.47;5029215;28;45398;-65
2022/03/10 10:18:32;;;;;;;;;34.75;31.50;;;;;12.90;49.50;101632.22;5020930;28;45946;-65
2022/03/10 10:20:57;;;;;;;;;33.50;27.75;;;;;12.97;49.60;101631.09;5018943;28;45667;-65
2022/03/10 10:23:28;;;;;;;;;32.75;28.75;;;;;13.01;49.36;101614.94;5018498;28;46066;-65
2022/03/10 10:25:57;;;;;;;;;28.75;28.50;;;;;13.12;49.02;101631.59;5016815;28;45486;-65
2022/03/10 10:28:28;;;;;;;;;25.00;22.75;;;;;13.15;49.24;101618.13;5032966;28;45395;-65
2022/03/10 10:31:05;;;;;;;;;24.25;21.25;;;;;13.23;49.23;101623.25;5035021;28;45543;-65
2022/03/10 10:33:32;;;;;;;;;24.75;21.50;;;;;13.23;49.24;101604.47;5020914;28;48284;-65
2022/03/10 10:36:16;;;;;;;;;31.00;28.25;;;;;13.37;49.18;101612.16;5031350;28;45401;-65
2022/03/10 10:38:45;;;;;;;;;20.50;20.50;;;;;13.34;49.18;101595.22;5026210;28;45647;-65
2022/03/10 10:41:28;;;;;;;;;16.50;16.00;;;;;13.46;49.02;101587.72;5021481;28;45324;-65
2022/03/10 10:43:58;;;;;;;;;24.25;19.00;;;;;13.57;48.88;101596.31;5037306;28;47110;-65
2022/03/10 10:46:43;;;;;;;;;20.00;17.50;;;;;13.67;48.92;101587.06;5030354;28;45823;-64
2022/03/10 10:49:22;;;;;;;;;18.50;18.50;;;;;13.74;48.95;101593.09;5030565;28;45450;-65
2022/03/10 10:51:52;;;;;;;;;16.00;13.50;;;;;13.82;49.17;101590.19;5025233;28;45332;-65
2022/03/10 10:54:18;;;;;;;;;12.00;12.00;;;;;13.92;48.83;101593.44;5019621;28;47802;-65
2022/03/10 10:56:48;;;;;;;;;16.00;14.33;;;;;13.99;48.75;101582.44;5021454;28;45418;-65
2022/03/10 10:59:41;;;;;;;;;18.25;16.75;;;;;14.04;48.61;101580.47;5027336;28;45534;-66
2022/03/10 11:02:21;;;;;;;;;20.25;18.50;;;;;14.09;48.55;101577.66;5031594;28;46860;-65
2022/03/10 11:04:51;;;;;;;;;17.75;17.75;;;;;14.18;48.31;101580.03;5035184;28;45681;-66
2022/03/10 11:07:17;;;;;;;;;11.75;11.00;;;;;14.23;48.36;101569.09;5036250;28;45374;-65
2022/03/10 11:09:45;;;;;;;;;17.00;15.25;;;;;14.29;48.88;101574.28;5033497;28;45399;-65
2022/03/10 11:12:13;;;;;;;;;13.75;13.00;;;;;14.39;48.50;101567.66;5026931;28;45459;-65